sensor_id;sensor_type;location;lat;lon;timestamp;temperature;humidity
37378;DHT22;23248;48.120;14.854;2023-02-11T00:00:29;-2.20;99.90
37378;DHT22;23248;48.120;14.854;2023-02-11T00:02:55;-2.30;99.90
37378;DHT22;23248;48.120;14.854;2023-02-11T00:05:21;-2.30;99.90
37378;DHT22;23248;48.120;14.854;2023-02-11T00:07:46;-2.40;99.90
37378;DHT22;23248;48.120;14.854;2023-02-11T00:10:12;-2.40;99.90
37378;DHT22;23248;48.120;14.854;2023-02-11T00:12:37;-2.40;99.90
37378;DHT22;23248;48.120;14.854;2023-02-11T00:15:04;-2.50;99.90
37378;DHT22;23248;48.120;14.854;2023-02-11T00:17:30;-2.40;99.90
37378;DHT22;23248;48.120;14.854;2023-02-11T00:19:56;-2.40;99.90
37378;DHT22;23248;48.120;14.854;2023-02-11T00:22:22;-2.40;99.90
37378;DHT22;23248;48.120;14.854;2023-02-11T00:24:47;-2.50;99.90
37378;DHT22;23248;48.120;14.854;2023-02-11T00:27:13;-2.50;99.90
37378;DHT22;23248;48.120;14.854;2023-02-11T00:29:39;-2.50;99.90
37378;DHT22;23248;48.120;14.854;2023-02-11T00:32:04;-2.60;99.90
37378;DHT22;23248;48.120;14.854;2023-02-11T00:34:31;-2.60;99.90
37378;DHT22;23248;48.120;14.854;2023-02-11T00:36:56;-2.60;99.90
37378;DHT22;23248;48.120;14.854;2023-02-11T00:39:22;-2.60;99.90
37378;DHT22;23248;48.120;14.854;2023-02-11T00:41:47;-2.60;99.90
37378;DHT22;23248;48.120;14.854;2023-02-11T00:44:13;-2.80;99.90
37378;DHT22;23248;48.120;14.854;2023-02-11T00:46:39;-2.80;99.90
37378;DHT22;23248;48.120;14.854;2023-02-11T00:49:04;-2.90;99.90
37378;DHT22;23248;48.120;14.854;2023-02-11T00:51:30;-2.90;99.90
37378;DHT22;23248;48.120;14.854;2023-02-11T00:53:55;-2.90;99.90
37378;DHT22;23248;48.120;14.854;2023-02-11T00:56:21;-2.80;99.90
37378;DHT22;23248;48.120;14.854;2023-02-11T00:58:46;-2.50;99.90
37378;DHT22;23248;48.120;14.854;2023-02-11T01:01:12;-2.50;99.90
37378;DHT22;23248;48.120;14.854;2023-02-11T01:03:38;-2.70;99.90
37378;DHT22;23248;48.120;14.854;2023-02-11T01:06:04;-2.80;99.90
37378;DHT22;23248;48.120;14.854;2023-02-11T01:08:30;-2.90;99.90
37378;DHT22;23248;48.120;14.854;2023-02-11T01:11:06;-2.90;99.90
37378;DHT22;23248;48.120;14.854;2023-02-11T01:13:33;-2.90;99.90
37378;DHT22;23248;48.120;14.854;2023-02-11T01:15:59;-2.90;99.90
37378;DHT22;23248;48.120;14.854;2023-02-11T01:18:25;-3.00;99.90
37378;DHT22;23248;48.120;14.854;2023-02-11T01:20:51;-3.00;99.90
37378;DHT22;23248;48.120;14.854;2023-02-11T01:23:17;-3.00;99.90
37378;DHT22;23248;48.120;14.854;2023-02-11T01:25:43;-3.00;99.90
37378;DHT22;23248;48.120;14.854;2023-02-11T01:28:18;-2.90;99.90
37378;DHT22;23248;48.120;14.854;2023-02-11T01:30:44;-2.90;99.90
37378;DHT22;23248;48.120;14.854;2023-02-11T01:33:09;-3.00;99.90
37378;DHT22;23248;48.120;14.854;2023-02-11T01:35:36;-2.90;99.90
37378;DHT22;23248;48.120;14.854;2023-02-11T01:38:02;-2.90;99.90
37378;DHT22;23248;48.120;14.854;2023-02-11T01:40:27;-3.00;99.90
37378;DHT22;23248;48.120;14.854;2023-02-11T01:42:53;-3.00;99.90
37378;DHT22;23248;48.120;14.854;2023-02-11T01:45:41;-2.90;99.90
37378;DHT22;23248;48.120;14.854;2023-02-11T01:48:06;-2.90;99.90
37378;DHT22;23248;48.120;14.854;2023-02-11T01:50:32;-2.70;99.90
37378;DHT22;23248;48.120;14.854;2023-02-11T01:52:58;-2.70;99.90
37378;DHT22;23248;48.120;14.854;2023-02-11T01:55:44;-2.70;99.90
37378;DHT22;23248;48.120;14.854;2023-02-11T01:58:28;-2.80;99.90
37378;DHT22;23248;48.120;14.854;2023-02-11T02:00:56;-2.90;99.90
37378;DHT22;23248;48.120;14.854;2023-02-11T02:03:23;-2.90;99.90
37378;DHT22;23248;48.120;14.854;2023-02-11T02:06:13;-3.00;99.90
37378;DHT22;23248;48.120;14.854;2023-02-11T02:11:06;-3.00;99.90
37378;DHT22;23248;48.120;14.854;2023-02-11T02:13:33;-3.00;99.90
37378;DHT22;23248;48.120;14.854;2023-02-11T02:28:56;-3.00;99.90
37378;DHT22;23248;48.120;14.854;2023-02-11T02:34:05;-3.00;99.90
37378;DHT22;23248;48.120;14.854;2023-02-11T02:36:54;-3.00;99.90
37378;DHT22;23248;48.120;14.854;2023-02-11T02:39:21;-3.00;99.90
37378;DHT22;23248;48.120;14.854;2023-02-11T02:41:48;-3.10;99.90
37378;DHT22;23248;48.120;14.854;2023-02-11T02:44:15;-3.20;99.90
37378;DHT22;23248;48.120;14.854;2023-02-11T02:46:40;-3.30;99.90
37378;DHT22;23248;48.120;14.854;2023-02-11T02:49:10;-3.30;99.90
37378;DHT22;23248;48.120;14.854;2023-02-11T02:51:41;-3.30;99.90
37378;DHT22;23248;48.120;14.854;2023-02-11T02:56:40;-3.30;99.90
37378;DHT22;23248;48.120;14.854;2023-02-11T03:01:37;-3.30;99.90
37378;DHT22;23248;48.120;14.854;2023-02-11T03:07:00;-3.30;99.90
37378;DHT22;23248;48.120;14.854;2023-02-11T03:09:29;-3.40;99.90
37378;DHT22;23248;48.120;14.854;2023-02-11T03:11:56;-3.40;99.90
37378;DHT22;23248;48.120;14.854;2023-02-11T03:14:22;-3.40;99.90
37378;DHT22;23248;48.120;14.854;2023-02-11T03:16:51;-3.40;99.90
37378;DHT22;23248;48.120;14.854;2023-02-11T03:19:20;-3.40;99.90
37378;DHT22;23248;48.120;14.854;2023-02-11T03:21:47;-3.50;99.90
37378;DHT22;23248;48.120;14.854;2023-02-11T03:24:24;-3.50;99.90
37378;DHT22;23248;48.120;14.854;2023-02-11T03:26:53;-3.50;99.90
37378;DHT22;23248;48.120;14.854;2023-02-11T03:34:29;-3.50;99.90
37378;DHT22;23248;48.120;14.854;2023-02-11T03:39:44;-3.50;99.90
37378;DHT22;23248;48.120;14.854;2023-02-11T03:42:11;-3.40;99.90
37378;DHT22;23248;48.120;14.854;2023-02-11T03:44:45;-3.40;99.90
37378;DHT22;23248;48.120;14.854;2023-02-11T03:47:12;-3.40;99.90
37378;DHT22;23248;48.120;14.854;2023-02-11T03:49:39;-3.40;99.90
37378;DHT22;23248;48.120;14.854;2023-02-11T03:52:06;-3.40;99.90
37378;DHT22;23248;48.120;14.854;2023-02-11T03:54:32;-3.40;99.90
37378;DHT22;23248;48.120;14.854;2023-02-11T03:56:58;-3.50;99.90
37378;DHT22;23248;48.120;14.854;2023-02-11T03:59:25;-3.40;99.90
37378;DHT22;23248;48.120;14.854;2023-02-11T04:01:50;-3.40;99.90
37378;DHT22;23248;48.120;14.854;2023-02-11T04:04:16;-3.40;99.90
37378;DHT22;23248;48.120;14.854;2023-02-11T04:06:45;-3.50;99.90
37378;DHT22;23248;48.120;14.854;2023-02-11T04:09:10;-3.50;99.90
37378;DHT22;23248;48.120;14.854;2023-02-11T04:11:36;-3.60;99.90
37378;DHT22;23248;48.120;14.854;2023-02-11T04:14:02;-3.60;99.90
37378;DHT22;23248;48.120;14.854;2023-02-11T04:16:27;-3.70;99.90
37378;DHT22;23248;48.120;14.854;2023-02-11T04:18:55;-3.70;99.90
37378;DHT22;23248;48.120;14.854;2023-02-11T04:21:21;-3.60;99.90
37378;DHT22;23248;48.120;14.854;2023-02-11T04:23:46;-3.70;99.90
37378;DHT22;23248;48.120;14.854;2023-02-11T04:26:12;-3.60;99.90
37378;DHT22;23248;48.120;14.854;2023-02-11T04:28:38;-3.50;99.90
37378;DHT22;23248;48.120;14.854;2023-02-11T04:31:04;-3.40;99.90
37378;DHT22;23248;48.120;14.854;2023-02-11T04:33:30;-3.40;99.90
37378;DHT22;23248;48.120;14.854;2023-02-11T04:35:56;-3.40;99.90
37378;DHT22;23248;48.120;14.854;2023-02-11T04:38:21;-3.40;99.90
37378;DHT22;23248;48.120;14.854;2023-02-11T04:40:48;-3.30;99.90
37378;DHT22;23248;48.120;14.854;2023-02-11T04:43:14;-3.30;99.90
37378;DHT22;23248;48.120;14.854;2023-02-11T04:45:39;-3.20;99.90
37378;DHT22;23248;48.120;14.854;2023-02-11T04:48:05;-3.10;99.90
37378;DHT22;23248;48.120;14.854;2023-02-11T04:50:30;-3.00;99.90
37378;DHT22;23248;48.120;14.854;2023-02-11T04:52:56;-3.00;99.90
37378;DHT22;23248;48.120;14.854;2023-02-11T04:55:22;-2.90;99.90
37378;DHT22;23248;48.120;14.854;2023-02-11T04:57:47;-2.90;99.90
37378;DHT22;23248;48.120;14.854;2023-02-11T05:00:13;-2.90;99.90
37378;DHT22;23248;48.120;14.854;2023-02-11T05:02:39;-2.80;99.90
37378;DHT22;23248;48.120;14.854;2023-02-11T05:05:04;-2.90;99.90
37378;DHT22;23248;48.120;14.854;2023-02-11T05:07:30;-2.90;99.90
37378;DHT22;23248;48.120;14.854;2023-02-11T05:09:55;-2.90;99.90
37378;DHT22;23248;48.120;14.854;2023-02-11T05:12:21;-2.80;99.90
37378;DHT22;23248;48.120;14.854;2023-02-11T05:14:47;-2.80;99.90
37378;DHT22;23248;48.120;14.854;2023-02-11T05:17:12;-2.80;99.90
37378;DHT22;23248;48.120;14.854;2023-02-11T05:19:38;-2.80;99.90
37378;DHT22;23248;48.120;14.854;2023-02-11T05:22:03;-2.90;99.90
37378;DHT22;23248;48.120;14.854;2023-02-11T05:24:32;-2.90;99.90
37378;DHT22;23248;48.120;14.854;2023-02-11T05:26:58;-2.90;99.90
37378;DHT22;23248;48.120;14.854;2023-02-11T05:29:24;-2.90;99.90
37378;DHT22;23248;48.120;14.854;2023-02-11T05:31:49;-2.80;99.90
37378;DHT22;23248;48.120;14.854;2023-02-11T05:34:15;-2.90;99.90
37378;DHT22;23248;48.120;14.854;2023-02-11T05:36:41;-2.90;99.90
37378;DHT22;23248;48.120;14.854;2023-02-11T05:39:06;-2.90;99.90
37378;DHT22;23248;48.120;14.854;2023-02-11T05:41:32;-2.90;99.90
37378;DHT22;23248;48.120;14.854;2023-02-11T05:43:57;-2.90;99.90
37378;DHT22;23248;48.120;14.854;2023-02-11T05:46:23;-2.90;99.90
37378;DHT22;23248;48.120;14.854;2023-02-11T05:48:49;-2.90;99.90
37378;DHT22;23248;48.120;14.854;2023-02-11T05:51:15;-2.90;99.90
37378;DHT22;23248;48.120;14.854;2023-02-11T05:53:41;-2.90;99.90
37378;DHT22;23248;48.120;14.854;2023-02-11T05:56:07;-2.90;99.90
37378;DHT22;23248;48.120;14.854;2023-02-11T05:58:32;-3.00;99.90
37378;DHT22;23248;48.120;14.854;2023-02-11T06:00:58;-3.00;99.90
37378;DHT22;23248;48.120;14.854;2023-02-11T06:03:24;-3.00;99.90
37378;DHT22;23248;48.120;14.854;2023-02-11T06:05:49;-3.10;99.90
37378;DHT22;23248;48.120;14.854;2023-02-11T06:08:15;-3.10;99.90
37378;DHT22;23248;48.120;14.854;2023-02-11T06:10:43;-3.10;99.90
37378;DHT22;23248;48.120;14.854;2023-02-11T06:13:09;-3.10;99.90
37378;DHT22;23248;48.120;14.854;2023-02-11T06:15:34;-3.10;99.90
37378;DHT22;23248;48.120;14.854;2023-02-11T06:18:00;-3.10;99.90
37378;DHT22;23248;48.120;14.854;2023-02-11T06:20:26;-3.20;99.90
37378;DHT22;23248;48.120;14.854;2023-02-11T06:22:51;-3.30;99.90
37378;DHT22;23248;48.120;14.854;2023-02-11T06:25:17;-3.30;99.90
37378;DHT22;23248;48.120;14.854;2023-02-11T06:27:43;-3.30;99.90
37378;DHT22;23248;48.120;14.854;2023-02-11T06:30:08;-3.40;99.90
37378;DHT22;23248;48.120;14.854;2023-02-11T06:32:34;-3.30;99.90
37378;DHT22;23248;48.120;14.854;2023-02-11T06:35:01;-3.10;99.90
37378;DHT22;23248;48.120;14.854;2023-02-11T06:37:26;-2.90;99.90
37378;DHT22;23248;48.120;14.854;2023-02-11T06:39:52;-2.70;99.90
37378;DHT22;23248;48.120;14.854;2023-02-11T06:42:17;-2.50;99.90
37378;DHT22;23248;48.120;14.854;2023-02-11T06:44:43;-2.50;99.90
37378;DHT22;23248;48.120;14.854;2023-02-11T06:47:09;-2.40;99.90
37378;DHT22;23248;48.120;14.854;2023-02-11T06:49:34;-2.40;99.90
37378;DHT22;23248;48.120;14.854;2023-02-11T06:52:00;-2.40;99.90
37378;DHT22;23248;48.120;14.854;2023-02-11T06:54:26;-2.30;99.90
37378;DHT22;23248;48.120;14.854;2023-02-11T06:56:52;-2.10;99.90
37378;DHT22;23248;48.120;14.854;2023-02-11T06:59:18;-2.10;99.90
37378;DHT22;23248;48.120;14.854;2023-02-11T07:01:45;-2.10;99.90
37378;DHT22;23248;48.120;14.854;2023-02-11T07:04:10;-2.00;99.90
37378;DHT22;23248;48.120;14.854;2023-02-11T07:06:36;-1.80;99.90
37378;DHT22;23248;48.120;14.854;2023-02-11T07:09:03;-1.80;99.90
37378;DHT22;23248;48.120;14.854;2023-02-11T07:11:29;-1.80;99.90
37378;DHT22;23248;48.120;14.854;2023-02-11T07:13:56;-1.90;99.90
37378;DHT22;23248;48.120;14.854;2023-02-11T07:16:24;-1.90;99.90
37378;DHT22;23248;48.120;14.854;2023-02-11T07:18:50;-1.80;99.90
37378;DHT22;23248;48.120;14.854;2023-02-11T07:21:17;-1.60;99.90
37378;DHT22;23248;48.120;14.854;2023-02-11T07:23:43;-1.40;99.90
37378;DHT22;23248;48.120;14.854;2023-02-11T07:26:10;-1.20;99.90
37378;DHT22;23248;48.120;14.854;2023-02-11T07:28:37;-1.20;99.90
37378;DHT22;23248;48.120;14.854;2023-02-11T07:31:13;-1.10;99.90
37378;DHT22;23248;48.120;14.854;2023-02-11T07:33:39;-0.90;99.90
37378;DHT22;23248;48.120;14.854;2023-02-11T07:36:05;-0.80;99.90
37378;DHT22;23248;48.120;14.854;2023-02-11T07:38:32;-0.70;99.90
37378;DHT22;23248;48.120;14.854;2023-02-11T07:40:58;-0.60;99.90
37378;DHT22;23248;48.120;14.854;2023-02-11T07:43:24;-0.50;99.90
37378;DHT22;23248;48.120;14.854;2023-02-11T07:45:50;-0.50;99.90
37378;DHT22;23248;48.120;14.854;2023-02-11T07:48:18;-0.60;99.90
37378;DHT22;23248;48.120;14.854;2023-02-11T07:50:44;-0.70;99.90
37378;DHT22;23248;48.120;14.854;2023-02-11T07:53:09;-0.60;99.90
37378;DHT22;23248;48.120;14.854;2023-02-11T07:55:35;-0.60;99.90
37378;DHT22;23248;48.120;14.854;2023-02-11T07:58:00;-0.50;99.90
37378;DHT22;23248;48.120;14.854;2023-02-11T08:00:26;-0.50;99.90
37378;DHT22;23248;48.120;14.854;2023-02-11T08:02:52;-0.30;99.90
37378;DHT22;23248;48.120;14.854;2023-02-11T08:05:17;-0.30;99.90
37378;DHT22;23248;48.120;14.854;2023-02-11T08:07:43;-0.20;99.90
37378;DHT22;23248;48.120;14.854;2023-02-11T08:10:08;-0.10;99.90
37378;DHT22;23248;48.120;14.854;2023-02-11T08:12:34;-0.10;99.90
37378;DHT22;23248;48.120;14.854;2023-02-11T08:15:00;-0.20;99.90
37378;DHT22;23248;48.120;14.854;2023-02-11T08:17:25;-0.20;99.90
37378;DHT22;23248;48.120;14.854;2023-02-11T08:19:51;-0.20;99.90
37378;DHT22;23248;48.120;14.854;2023-02-11T08:22:16;-0.30;99.90
37378;DHT22;23248;48.120;14.854;2023-02-11T08:24:42;-0.20;99.90
37378;DHT22;23248;48.120;14.854;2023-02-11T08:27:08;-0.20;99.90
37378;DHT22;23248;48.120;14.854;2023-02-11T08:29:33;-0.10;99.90
37378;DHT22;23248;48.120;14.854;2023-02-11T08:31:59;-0.10;99.90
37378;DHT22;23248;48.120;14.854;2023-02-11T08:34:24;0.00;99.90
37378;DHT22;23248;48.120;14.854;2023-02-11T08:36:50;0.10;99.90
37378;DHT22;23248;48.120;14.854;2023-02-11T08:39:17;0.20;99.90
37378;DHT22;23248;48.120;14.854;2023-02-11T08:41:43;0.30;99.90
37378;DHT22;23248;48.120;14.854;2023-02-11T08:44:09;0.40;99.90
37378;DHT22;23248;48.120;14.854;2023-02-11T08:46:35;0.60;99.90
37378;DHT22;23248;48.120;14.854;2023-02-11T08:49:00;0.60;99.90
37378;DHT22;23248;48.120;14.854;2023-02-11T08:51:27;0.60;99.90
37378;DHT22;23248;48.120;14.854;2023-02-11T08:53:54;0.60;99.90
37378;DHT22;23248;48.120;14.854;2023-02-11T08:56:20;0.70;99.90
37378;DHT22;23248;48.120;14.854;2023-02-11T08:58:47;0.80;99.90
37378;DHT22;23248;48.120;14.854;2023-02-11T09:01:20;0.80;99.90
37378;DHT22;23248;48.120;14.854;2023-02-11T09:03:46;0.90;99.90
37378;DHT22;23248;48.120;14.854;2023-02-11T09:06:12;0.90;99.90
37378;DHT22;23248;48.120;14.854;2023-02-11T09:08:39;0.90;99.90
37378;DHT22;23248;48.120;14.854;2023-02-11T09:11:05;1.00;99.90
37378;DHT22;23248;48.120;14.854;2023-02-11T09:13:31;1.00;99.90
37378;DHT22;23248;48.120;14.854;2023-02-11T09:15:57;1.00;99.90
37378;DHT22;23248;48.120;14.854;2023-02-11T09:18:23;0.90;99.90
37378;DHT22;23248;48.120;14.854;2023-02-11T09:20:49;0.90;99.90
37378;DHT22;23248;48.120;14.854;2023-02-11T09:23:15;1.00;99.90
37378;DHT22;23248;48.120;14.854;2023-02-11T09:25:40;1.00;99.90
37378;DHT22;23248;48.120;14.854;2023-02-11T09:28:06;1.10;99.90
37378;DHT22;23248;48.120;14.854;2023-02-11T09:30:32;1.10;99.90
37378;DHT22;23248;48.120;14.854;2023-02-11T09:32:57;1.20;99.90
37378;DHT22;23248;48.120;14.854;2023-02-11T09:35:23;1.30;99.90
37378;DHT22;23248;48.120;14.854;2023-02-11T09:37:49;1.40;99.90
37378;DHT22;23248;48.120;14.854;2023-02-11T09:40:15;1.50;99.90
37378;DHT22;23248;48.120;14.854;2023-02-11T09:42:45;1.60;99.90
37378;DHT22;23248;48.120;14.854;2023-02-11T09:45:16;1.70;99.90
37378;DHT22;23248;48.120;14.854;2023-02-11T09:47:45;1.80;99.90
37378;DHT22;23248;48.120;14.854;2023-02-11T09:50:13;2.00;99.90
37378;DHT22;23248;48.120;14.854;2023-02-11T09:52:44;2.10;99.90
37378;DHT22;23248;48.120;14.854;2023-02-11T09:55:20;2.10;99.90
37378;DHT22;23248;48.120;14.854;2023-02-11T09:57:46;2.10;99.90
37378;DHT22;23248;48.120;14.854;2023-02-11T10:05:32;2.20;99.90
37378;DHT22;23248;48.120;14.854;2023-02-11T10:10:50;2.30;99.90
37378;DHT22;23248;48.120;14.854;2023-02-11T10:18:39;2.30;99.90
37378;DHT22;23248;48.120;14.854;2023-02-11T10:21:16;2.30;99.90
37378;DHT22;23248;48.120;14.854;2023-02-11T10:23:45;2.20;99.90
37378;DHT22;23248;48.120;14.854;2023-02-11T10:26:16;2.20;99.90
37378;DHT22;23248;48.120;14.854;2023-02-11T10:28:46;2.20;99.90
37378;DHT22;23248;48.120;14.854;2023-02-11T10:31:15;2.20;99.90
37378;DHT22;23248;48.120;14.854;2023-02-11T10:36:10;2.30;99.90
37378;DHT22;23248;48.120;14.854;2023-02-11T10:38:36;2.30;99.90
37378;DHT22;23248;48.120;14.854;2023-02-11T10:41:02;2.30;99.90
37378;DHT22;23248;48.120;14.854;2023-02-11T10:43:28;2.30;99.90
37378;DHT22;23248;48.120;14.854;2023-02-11T10:45:55;2.20;99.90
37378;DHT22;23248;48.120;14.854;2023-02-11T10:51:07;2.20;99.90
37378;DHT22;23248;48.120;14.854;2023-02-11T10:53:33;2.20;99.90
37378;DHT22;23248;48.120;14.854;2023-02-11T10:56:00;2.30;99.90
37378;DHT22;23248;48.120;14.854;2023-02-11T10:58:45;2.40;99.90
37378;DHT22;23248;48.120;14.854;2023-02-11T11:01:11;2.50;99.90
37378;DHT22;23248;48.120;14.854;2023-02-11T11:03:38;2.50;99.90
37378;DHT22;23248;48.120;14.854;2023-02-11T11:06:05;2.60;99.90
37378;DHT22;23248;48.120;14.854;2023-02-11T11:08:50;2.70;99.90
37378;DHT22;23248;48.120;14.854;2023-02-11T11:11:20;2.80;99.90
37378;DHT22;23248;48.120;14.854;2023-02-11T11:16:34;3.10;99.90
37378;DHT22;23248;48.120;14.854;2023-02-11T11:24:01;3.80;99.90
37378;DHT22;23248;48.120;14.854;2023-02-11T11:26:37;4.20;99.90
37378;DHT22;23248;48.120;14.854;2023-02-11T11:29:08;4.30;99.90
37378;DHT22;23248;48.120;14.854;2023-02-11T11:32:10;4.20;99.90
37378;DHT22;23248;48.120;14.854;2023-02-11T11:34:41;4.10;99.90
37378;DHT22;23248;48.120;14.854;2023-02-11T11:37:12;4.00;99.90
37378;DHT22;23248;48.120;14.854;2023-02-11T11:39:38;4.10;99.90
37378;DHT22;23248;48.120;14.854;2023-02-11T11:42:23;4.10;99.90
37378;DHT22;23248;48.120;14.854;2023-02-11T11:45:00;4.00;99.90
37378;DHT22;23248;48.120;14.854;2023-02-11T11:47:28;4.10;99.90
37378;DHT22;23248;48.120;14.854;2023-02-11T11:57:32;4.10;99.90
37378;DHT22;23248;48.120;14.854;2023-02-11T12:00:00;4.00;99.90
37378;DHT22;23248;48.120;14.854;2023-02-11T12:08:12;3.90;99.90
37378;DHT22;23248;48.120;14.854;2023-02-11T12:23:30;4.00;99.90
37378;DHT22;23248;48.120;14.854;2023-02-11T12:33:53;4.10;99.90
37378;DHT22;23248;48.120;14.854;2023-02-11T12:36:59;4.10;99.90
37378;DHT22;23248;48.120;14.854;2023-02-11T12:49:50;4.20;99.90
37378;DHT22;23248;48.120;14.854;2023-02-11T12:54:51;4.30;99.90
37378;DHT22;23248;48.120;14.854;2023-02-11T12:57:26;4.20;99.90
37378;DHT22;23248;48.120;14.854;2023-02-11T13:05:26;4.20;99.90
37378;DHT22;23248;48.120;14.854;2023-02-11T13:08:13;4.20;99.90
37378;DHT22;23248;48.120;14.854;2023-02-11T13:10:41;4.20;99.90
37378;DHT22;23248;48.120;14.854;2023-02-11T13:13:17;4.10;99.90
37378;DHT22;23248;48.120;14.854;2023-02-11T13:15:45;4.20;99.90
37378;DHT22;23248;48.120;14.854;2023-02-11T13:18:15;4.20;99.90
37378;DHT22;23248;48.120;14.854;2023-02-11T13:23:29;4.10;99.90
37378;DHT22;23248;48.120;14.854;2023-02-11T13:26:03;4.10;99.90
37378;DHT22;23248;48.120;14.854;2023-02-11T13:31:18;4.10;99.90
37378;DHT22;23248;48.120;14.854;2023-02-11T13:33:44;4.10;99.90
37378;DHT22;23248;48.120;14.854;2023-02-11T13:36:18;4.10;99.90
37378;DHT22;23248;48.120;14.854;2023-02-11T13:38:51;4.10;99.90
37378;DHT22;23248;48.120;14.854;2023-02-11T13:41:25;4.10;99.90
37378;DHT22;23248;48.120;14.854;2023-02-11T13:44:14;4.00;99.90
37378;DHT22;23248;48.120;14.854;2023-02-11T13:47:05;4.00;99.90
37378;DHT22;23248;48.120;14.854;2023-02-11T13:49:36;4.10;99.90
37378;DHT22;23248;48.120;14.854;2023-02-11T13:52:14;4.10;99.90
37378;DHT22;23248;48.120;14.854;2023-02-11T13:54:40;4.10;99.90
37378;DHT22;23248;48.120;14.854;2023-02-11T13:57:22;4.10;99.90
37378;DHT22;23248;48.120;14.854;2023-02-11T13:59:51;4.10;99.90
37378;DHT22;23248;48.120;14.854;2023-02-11T14:02:33;4.10;99.90
37378;DHT22;23248;48.120;14.854;2023-02-11T14:05:20;4.10;99.90
37378;DHT22;23248;48.120;14.854;2023-02-11T14:13:30;4.10;99.90
37378;DHT22;23248;48.120;14.854;2023-02-11T14:16:15;4.10;99.90
37378;DHT22;23248;48.120;14.854;2023-02-11T14:23:38;4.20;99.90
37378;DHT22;23248;48.120;14.854;2023-02-11T14:26:13;4.20;99.90
37378;DHT22;23248;48.120;14.854;2023-02-11T14:28:43;4.20;99.90
37378;DHT22;23248;48.120;14.854;2023-02-11T14:31:11;4.20;99.90
37378;DHT22;23248;48.120;14.854;2023-02-11T14:36:47;4.20;99.90
37378;DHT22;23248;48.120;14.854;2023-02-11T14:41:21;4.20;99.90
37378;DHT22;23248;48.120;14.854;2023-02-11T14:43:53;4.20;99.90
37378;DHT22;23248;48.120;14.854;2023-02-11T14:46:21;4.20;99.90
37378;DHT22;23248;48.120;14.854;2023-02-11T14:48:48;4.20;99.90
37378;DHT22;23248;48.120;14.854;2023-02-11T14:51:17;4.20;99.90
37378;DHT22;23248;48.120;14.854;2023-02-11T14:53:45;4.20;99.90
37378;DHT22;23248;48.120;14.854;2023-02-11T14:56:22;4.20;99.90
37378;DHT22;23248;48.120;14.854;2023-02-11T14:58:51;4.20;99.90
37378;DHT22;23248;48.120;14.854;2023-02-11T15:01:27;4.10;99.90
37378;DHT22;23248;48.120;14.854;2023-02-11T15:03:57;4.10;99.90
37378;DHT22;23248;48.120;14.854;2023-02-11T15:08:51;4.20;99.90
37378;DHT22;23248;48.120;14.854;2023-02-11T15:11:18;4.20;99.90
37378;DHT22;23248;48.120;14.854;2023-02-11T15:13:46;4.10;99.90
37378;DHT22;23248;48.120;14.854;2023-02-11T15:16:15;4.10;99.90
37378;DHT22;23248;48.120;14.854;2023-02-11T15:18:44;4.10;99.90
37378;DHT22;23248;48.120;14.854;2023-02-11T15:21:10;4.10;99.90
37378;DHT22;23248;48.120;14.854;2023-02-11T15:23:36;4.10;99.90
37378;DHT22;23248;48.120;14.854;2023-02-11T15:26:11;4.00;99.90
37378;DHT22;23248;48.120;14.854;2023-02-11T15:28:37;4.00;99.90
37378;DHT22;23248;48.120;14.854;2023-02-11T15:31:04;4.00;99.90
37378;DHT22;23248;48.120;14.854;2023-02-11T15:33:32;4.00;99.90
37378;DHT22;23248;48.120;14.854;2023-02-11T15:35:59;3.90;99.90
37378;DHT22;23248;48.120;14.854;2023-02-11T15:38:26;3.90;99.90
37378;DHT22;23248;48.120;14.854;2023-02-11T15:43:21;3.90;99.90
37378;DHT22;23248;48.120;14.854;2023-02-11T15:50:47;3.80;99.90
37378;DHT22;23248;48.120;14.854;2023-02-11T15:55:43;3.80;99.90
37378;DHT22;23248;48.120;14.854;2023-02-11T15:58:10;3.80;99.90
37378;DHT22;23248;48.120;14.854;2023-02-11T16:00:44;3.70;99.90
37378;DHT22;23248;48.120;14.854;2023-02-11T16:03:21;3.70;99.90
37378;DHT22;23248;48.120;14.854;2023-02-11T16:05:47;3.70;99.90
37378;DHT22;23248;48.120;14.854;2023-02-11T16:08:23;3.60;99.90
37378;DHT22;23248;48.120;14.854;2023-02-11T16:10:57;3.60;99.90
37378;DHT22;23248;48.120;14.854;2023-02-11T16:13:28;3.60;99.90
37378;DHT22;23248;48.120;14.854;2023-02-11T16:16:00;3.60;99.90
37378;DHT22;23248;48.120;14.854;2023-02-11T16:20:57;3.50;99.90
37378;DHT22;23248;48.120;14.854;2023-02-11T16:23:27;3.50;99.90
37378;DHT22;23248;48.120;14.854;2023-02-11T16:26:02;3.40;99.90
37378;DHT22;23248;48.120;14.854;2023-02-11T16:28:31;3.40;99.90
37378;DHT22;23248;48.120;14.854;2023-02-11T16:30:57;3.40;99.90
37378;DHT22;23248;48.120;14.854;2023-02-11T16:33:24;3.40;99.90
37378;DHT22;23248;48.120;14.854;2023-02-11T16:35:50;3.30;99.90
37378;DHT22;23248;48.120;14.854;2023-02-11T16:38:16;3.40;99.90
37378;DHT22;23248;48.120;14.854;2023-02-11T16:40:42;3.40;99.90
37378;DHT22;23248;48.120;14.854;2023-02-11T16:43:10;3.30;99.90
37378;DHT22;23248;48.120;14.854;2023-02-11T16:45:37;3.40;99.90
37378;DHT22;23248;48.120;14.854;2023-02-11T16:48:07;3.30;99.90
37378;DHT22;23248;48.120;14.854;2023-02-11T16:50:33;3.30;99.90
37378;DHT22;23248;48.120;14.854;2023-02-11T16:52:59;3.20;99.90
37378;DHT22;23248;48.120;14.854;2023-02-11T16:55:32;3.20;99.90
37378;DHT22;23248;48.120;14.854;2023-02-11T16:57:58;3.10;99.90
37378;DHT22;23248;48.120;14.854;2023-02-11T17:00:24;3.10;99.90
37378;DHT22;23248;48.120;14.854;2023-02-11T17:02:50;3.10;99.90
37378;DHT22;23248;48.120;14.854;2023-02-11T17:05:18;3.10;99.90
37378;DHT22;23248;48.120;14.854;2023-02-11T17:07:45;3.10;99.90
37378;DHT22;23248;48.120;14.854;2023-02-11T17:10:13;3.10;99.90
37378;DHT22;23248;48.120;14.854;2023-02-11T17:12:39;3.10;99.90
37378;DHT22;23248;48.120;14.854;2023-02-11T17:15:05;3.10;99.90
37378;DHT22;23248;48.120;14.854;2023-02-11T17:17:31;3.20;99.90
37378;DHT22;23248;48.120;14.854;2023-02-11T17:19:57;3.10;99.90
37378;DHT22;23248;48.120;14.854;2023-02-11T17:22:23;3.10;99.90
37378;DHT22;23248;48.120;14.854;2023-02-11T17:24:51;3.10;99.90
37378;DHT22;23248;48.120;14.854;2023-02-11T17:27:21;3.20;99.90
37378;DHT22;23248;48.120;14.854;2023-02-11T17:29:47;3.20;99.90
37378;DHT22;23248;48.120;14.854;2023-02-11T17:32:13;3.20;99.90
37378;DHT22;23248;48.120;14.854;2023-02-11T17:34:38;3.20;99.90
37378;DHT22;23248;48.120;14.854;2023-02-11T17:37:04;3.30;99.90
37378;DHT22;23248;48.120;14.854;2023-02-11T17:39:34;3.30;99.90
37378;DHT22;23248;48.120;14.854;2023-02-11T17:41:59;3.30;99.90
37378;DHT22;23248;48.120;14.854;2023-02-11T17:44:28;3.30;99.90
37378;DHT22;23248;48.120;14.854;2023-02-11T17:46:54;3.30;99.90
37378;DHT22;23248;48.120;14.854;2023-02-11T17:49:20;3.30;99.90
37378;DHT22;23248;48.120;14.854;2023-02-11T17:51:46;3.30;99.90
37378;DHT22;23248;48.120;14.854;2023-02-11T17:54:13;3.30;99.90
37378;DHT22;23248;48.120;14.854;2023-02-11T17:56:39;3.20;99.90